ポンタ・デルガダ空港の過去48時間の天気

ポンタ・デルガダ空港 (Ponta Delgada / Nordela Acores )

現在時刻: 2/27 12:36 -01 (2/27 13:36 UTC) 以下の時間は現地時間です。

過去48時間のMETAR気象情報
時間 風向 風速(m/s) 視程 気温(℃) 湿度(%) 気圧(hPa) 天気現象
27 12:00 4 10km以上 17 77 1025
27 11:30 5 10km以上 17 77 1025
27 11:00 4 10km以上 17 77 1025
27 10:30 5 10km以上 17 77 1025
27 10:00 5 10km以上 17 77 1025
27 09:30 4 10km以上 17 77 1025
27 09:00 南南東 4 10km以上 17 77 1025
27 08:30 4 10km以上 17 77 1025
27 08:00 4 10km以上 16 82 1025
27 07:30 3 10km以上 16 82 1025
27 07:00 4 10km以上 17 72 1025
27 06:30 4 10km以上 16 82 1024
27 06:00 5 10km以上 17 72 1024
27 05:30 5 10km以上 16 77 1025
27 05:00 4 10km以上 16 77 1025
27 04:30 南南西 4 10km以上 16 72 1025
27 04:00 4 10km以上 16 77 1025
27 03:30 5 10km以上 16 72 1025
27 03:00 5 10km以上 17 72 1026
27 02:30 4 10km以上 17 72 1026
27 02:00 5 10km以上 16 77 1026
27 01:30 南南東 4 10km以上 16 82 1026
27 01:00 南南東 3 10km以上 17 72 1026
27 00:30 南南東 4 10km以上 17 72 1027
27 00:00 4 10km以上 17 68 1027
26 23:30 4 10km以上 17 77 1027
26 23:00 南南東 4 10km以上 17 72 1028
26 22:30 4 10km以上 17 68 1028
26 22:00 5 10km以上 17 68 1028
26 21:30 4 10km以上 16 77 1028
26 21:00 南南東 4 10km以上 16 77 1028
26 20:30 南東 4 10km以上 16 72 1028
26 20:00 4 10km以上 16 72 1028
26 19:30 南南東 4 10km以上 16 77 1028
26 19:00 南南東 4 10km以上 16 72 1028
26 18:30 南南東 4 10km以上 16 77 1027
26 18:00 南南東 4 10km以上 16 77 1028
26 17:30 南東 4 10km以上 16 77 1028
26 17:00 南東 4 10km以上 17 68 1028
26 16:30 南東 4 10km以上 17 68 1028
26 16:00 南東 5 10km以上 17 72 1028
26 15:30 南東 6 10km以上 17 68 1028
26 15:00 南東 5 10km以上 17 68 1028
26 14:30 南東 5 10km以上 17 68 1028
26 14:00 南東 5 10km以上 17 68 1028
26 13:30 南東 5 10km以上 17 68 1029
26 13:00 南東 5 10km以上 17 72 1029
26 12:30 南南東 6 10km以上 17 68 1030
26 12:00 南南東 6 10km以上 17 68 1030
26 11:30 南南東 5 10km以上 17 68 1030
26 11:00 南南東 5 10km以上 16 72 1030
26 10:30 南東 5 10km以上 16 72 1030
26 10:00 南東 5 10km以上 16 72 1030
26 09:30 南東 5 10km以上 15 72 1030
26 09:00 南東 5 10km以上 15 72 1030
26 08:30 南東 5 10km以上 14 77 1030
26 08:00 東南東 5 10km以上 14 77 1029
26 07:30 東南東 4 10km以上 14 77 1030
26 07:00 南東 4 10km以上 14 77 1030
26 06:30 南東 4 10km以上 14 77 1030
26 06:00 南南東 3 10km以上 14 77 1030
26 05:30 南東 4 10km以上 14 77 1030
26 05:00 南東 5 10km以上 14 77 1030
26 04:30 東南東 5 10km以上 14 77 1030
26 04:00 東南東 5 10km以上 14 77 1030
26 03:30 南東 4 10km以上 14 77 1030
26 03:00 南東 4 10km以上 14 77 1031
26 02:30 南東 5 10km以上 14 77 1031
26 02:00 東南東 5 10km以上 14 82 1032
26 01:30 2 10km以上 13 82 1032
26 01:00 東北東 2 10km以上 13 82 1032
26 00:30 3 10km以上 13 82 1032
26 00:00 3 10km以上 13 82 1032
25 23:30 2 10km以上 13 82 1032
25 23:00 3 10km以上 14 77 1032
25 22:30 東南東 3 10km以上 14 82 1033
25 22:00 東南東 4 10km以上 14 82 1033
25 21:30 南東 4 10km以上 14 82 1033
25 21:00 南東 5 10km以上 15 77 1033
25 20:30 南東 5 10km以上 15 77 1032
25 20:00 東南東 5 10km以上 15 82 1032
25 19:30 東南東 5 10km以上 15 82 1032
25 19:00 東南東 5 10km以上 15 82 1031
25 18:30 東南東 4 10km以上 15 82 1031
25 18:00 東南東 4 10km以上 15 82 1031
25 17:30 東南東 4 10km以上 16 77 1031
25 17:00 東南東 4 10km以上 16 77 1031
25 16:30 東南東 4 10km以上 16 77 1031
25 16:00 東南東 4 10km以上 16 77 1031
25 15:30 東南東 5 10km以上 16 77 1032
25 15:00 南東 5 10km以上 17 77 1032
25 14:30 南東 5 10km以上 17 77 1032
25 14:00 南東 4 10km以上 17 72 1032
25 13:30 東南東 5 10km以上 17 77 1032
25 13:00 東南東 4 10km以上 17 72 1032
LPPD 271300Z 17008KT 9999 FEW016 BKN028 17/13 Q1025
LPPD 271230Z 17009KT 9999 FEW016 BKN030 17/13 Q1025
LPPD 271200Z 17008KT 9999 FEW018 BKN030 17/13 Q1025
LPPD 271130Z 18009KT 9999 FEW018 BKN030 17/13 Q1025
LPPD 271100Z 17009KT 9999 FEW018 BKN030 17/13 Q1025
LPPD 271030Z 17008KT 9999 FEW018 BKN030 17/13 Q1025
LPPD 271000Z 16008KT 9999 SCT018 BKN030 17/13 Q1025
LPPD 270930Z 17007KT 9999 SCT020 BKN035 17/13 Q1025
LPPD 270900Z 17007KT 9999 SCT023 BKN035 16/13 Q1025
LPPD 270830Z 17006KT 9999 SCT023 BKN035 16/13 Q1025
LPPD 270800Z 17007KT 140V200 9999 SCT023 BKN035 17/12 Q1025
LPPD 270730Z 17007KT 9999 SCT025 SCT035 16/13 Q1024
LPPD 270700Z 18009KT 9999 BKN023 17/12 Q1024
LPPD 270630Z 18009KT 9999 BKN023 16/12 Q1025
LPPD 270600Z 18008KT 160V220 9999 BKN023 16/12 Q1025
LPPD 270530Z 20008KT 9999 BKN023 16/11 Q1025
LPPD 270500Z 19008KT 9999 BKN023 16/12 Q1025
LPPD 270430Z 18010KT 160V220 9999 BKN023 16/11 Q1025
LPPD 270400Z 18010KT 9999 BKN023 17/12 Q1026
LPPD 270330Z 18008KT 9999 BKN023 17/12 Q1026
LPPD 270300Z 17009KT 9999 BKN023 16/12 Q1026
LPPD 270230Z 16008KT 9999 BKN023 16/13 Q1026
LPPD 270200Z 16006KT 9999 BKN025 17/12 Q1026
LPPD 270130Z 16007KT 130V190 9999 BKN025 17/12 Q1027
LPPD 270100Z 17007KT 9999 BKN025 17/11 Q1027
LPPD 270030Z 17008KT 9999 BKN025 17/13 Q1027
LPPD 270000Z 16007KT 9999 BKN025 17/12 Q1028
LPPD 262330Z 18007KT 9999 BKN025 17/11 Q1028
LPPD 262300Z 18009KT 9999 BKN025 17/11 Q1028
LPPD 262230Z 17008KT 9999 BKN025 16/12 Q1028
LPPD 262200Z 16007KT 9999 BKN025 16/12 Q1028
LPPD 262130Z 14007KT 9999 BKN025 16/11 Q1028
LPPD 262100Z 17008KT 9999 BKN022 16/11 Q1028
LPPD 262030Z 16008KT 9999 SCT022 SCT030 16/12 Q1028
LPPD 262000Z 15008KT 9999 BKN022 16/11 Q1028
LPPD 261930Z 16008KT 9999 BKN022 16/12 Q1027
LPPD 261900Z 16008G19KT 120V190 9999 BKN020 16/12 Q1028
LPPD 261830Z 14008KT 120V220 9999 BKN022 16/12 Q1028
LPPD 261800Z 13008KT 9999 SCT022 SCT030 17/11 Q1028
LPPD 261730Z 14008KT 340V150 9999 FEW022 BKN030 17/11 Q1028
LPPD 261700Z 14010KT 110V170 9999 SCT025 17/12 Q1028
LPPD 261630Z 13011KT 090V150 9999 FEW025 17/11 Q1028
LPPD 261600Z 13010KT 9999 FEW022 17/11 Q1028
LPPD 261530Z 14010KT 9999 SCT022 17/11 Q1028
LPPD 261500Z 14010KT 9999 SCT022 17/11 Q1028
LPPD 261430Z 14010KT 9999 SCT020 17/11 Q1029
LPPD 261400Z 14010KT 9999 SCT020 17/12 Q1029
LPPD 261330Z 15011G22KT 090V190 9999 SCT020 17/11 Q1030
LPPD 261300Z 15011KT 9999 SCT020 17/11 Q1030
LPPD 261230Z 15010KT 9999 SCT020 17/11 Q1030
LPPD 261200Z 15009KT 120V180 9999 SCT020 16/11 Q1030
LPPD 261130Z 13010KT 9999 SCT020 16/11 Q1030
LPPD 261100Z 14009KT 9999 SCT020 16/11 Q1030
LPPD 261030Z 14010KT 9999 SCT020 15/10 Q1030
LPPD 261000Z 14009KT 090V170 9999 SCT018 15/10 Q1030
LPPD 260930Z 13009KT 9999 SCT018 14/10 Q1030
LPPD 260900Z 12009KT 9999 FEW018 14/10 Q1029
LPPD 260830Z 12008KT 9999 FEW018 SCT035 14/10 Q1030
LPPD 260800Z 13008KT 100V180 9999 FEW018 BKN035 14/10 Q1030
LPPD 260730Z 14008KT 9999 BKN018 14/10 Q1030
LPPD 260700Z 15006KT 9999 SCT015 14/10 Q1030
LPPD 260630Z 14008KT 9999 FEW015 14/10 Q1030
LPPD 260600Z 14009KT 9999 FEW015 14/10 Q1030
LPPD 260530Z 12009KT 9999 FEW015 14/10 Q1030
LPPD 260500Z 12009KT 9999 FEW015 14/10 Q1030
LPPD 260430Z 13008KT 9999 FEW015 14/10 Q1030
LPPD 260400Z 13008KT 090V150 9999 FEW015 14/10 Q1031
LPPD 260330Z 13009KT 9999 FEW015 14/10 Q1031
LPPD 260300Z 12009KT 9999 SCT015 14/11 Q1032
LPPD 260230Z 08003KT 030V120 9999 FEW015 13/10 Q1032
LPPD 260200Z 06004KT 030V100 9999 FEW015 13/10 Q1032
LPPD 260130Z 08005KT 050V110 9999 FEW015 13/10 Q1032
LPPD 260100Z 10005KT 050V130 9999 FEW015 13/10 Q1032
LPPD 260030Z 08004KT 030V110 9999 FEW016 13/10 Q1032
LPPD 260000Z 10005KT 9999 FEW016 14/10 Q1032
LPPD 252330Z 11006KT 9999 FEW016 14/11 Q1033
LPPD 252300Z 12008KT 9999 FEW018 14/11 Q1033
LPPD 252230Z 13008KT 9999 FEW018 14/11 Q1033
LPPD 252200Z 13010KT 9999 SCT016 15/11 Q1033
LPPD 252130Z 13010KT 9999 SCT016 15/11 Q1032
LPPD 252100Z 12009KT 9999 SCT016 15/12 Q1032
LPPD 252030Z 11009KT 9999 FEW016 15/12 Q1032
LPPD 252000Z 12009KT 9999 FEW014 15/12 Q1031
LPPD 251930Z 12008KT 9999 FEW016 15/12 Q1031
LPPD 251900Z 12008KT 9999 FEW016 15/12 Q1031
LPPD 251830Z 12008KT 9999 FEW014 16/12 Q1031
LPPD 251800Z 12008KT 080V140 9999 FEW014 16/12 Q1031
LPPD 251730Z 12008KT 080V170 9999 FEW018 16/12 Q1031
LPPD 251700Z 11007KT 9999 FEW018 16/12 Q1031
LPPD 251630Z 12009KT 9999 FEW018 16/12 Q1032
LPPD 251600Z 13009KT 9999 FEW018 17/13 Q1032
LPPD 251530Z 14010KT 9999 FEW018 17/13 Q1032
LPPD 251500Z 14008KT 9999 FEW018 17/12 Q1032
LPPD 251430Z 12009KT 090V150 9999 FEW016 17/13 Q1032
LPPD 251400Z 12008KT 080V140 9999 FEW014 17/12 Q1032